sensor_id;sensor_type;location;lat;lon;timestamp;temperature;humidity
31263;DHT22;17892;52.080;9.006;2022-07-23T00:00:52;15.60;95.70
31263;DHT22;17892;52.080;9.006;2022-07-23T00:03:18;15.60;95.70
31263;DHT22;17892;52.080;9.006;2022-07-23T00:05:44;15.70;95.80
31263;DHT22;17892;52.080;9.006;2022-07-23T00:08:09;15.70;95.90
31263;DHT22;17892;52.080;9.006;2022-07-23T00:10:35;15.80;95.90
31263;DHT22;17892;52.080;9.006;2022-07-23T00:13:02;15.80;96.00
31263;DHT22;17892;52.080;9.006;2022-07-23T00:15:28;15.80;96.00
31263;DHT22;17892;52.080;9.006;2022-07-23T00:17:54;15.90;95.90
31263;DHT22;17892;52.080;9.006;2022-07-23T00:20:20;15.90;95.90
31263;DHT22;17892;52.080;9.006;2022-07-23T00:22:47;15.90;95.80
31263;DHT22;17892;52.080;9.006;2022-07-23T00:25:13;15.90;95.70
31263;DHT22;17892;52.080;9.006;2022-07-23T00:27:39;15.90;95.60
31263;DHT22;17892;52.080;9.006;2022-07-23T00:30:05;15.90;95.50
31263;DHT22;17892;52.080;9.006;2022-07-23T00:32:32;15.80;95.40
31263;DHT22;17892;52.080;9.006;2022-07-23T00:34:57;15.80;95.40
31263;DHT22;17892;52.080;9.006;2022-07-23T00:37:23;15.80;95.40
31263;DHT22;17892;52.080;9.006;2022-07-23T00:39:49;15.80;95.40
31263;DHT22;17892;52.080;9.006;2022-07-23T00:42:14;15.70;95.40
31263;DHT22;17892;52.080;9.006;2022-07-23T00:44:40;15.70;95.40
31263;DHT22;17892;52.080;9.006;2022-07-23T00:47:06;15.60;95.40
31263;DHT22;17892;52.080;9.006;2022-07-23T00:49:32;15.60;95.50
31263;DHT22;17892;52.080;9.006;2022-07-23T00:52:01;15.60;95.60
31263;DHT22;17892;52.080;9.006;2022-07-23T00:54:27;15.60;95.80
31263;DHT22;17892;52.080;9.006;2022-07-23T00:56:53;15.60;95.70
31263;DHT22;17892;52.080;9.006;2022-07-23T00:59:19;15.60;95.80
31263;DHT22;17892;52.080;9.006;2022-07-23T01:01:46;15.50;95.80
31263;DHT22;17892;52.080;9.006;2022-07-23T01:12:12;15.60;96.30
31263;DHT22;17892;52.080;9.006;2022-07-23T01:14:38;15.60;96.30
31263;DHT22;17892;52.080;9.006;2022-07-23T01:17:04;15.60;95.90
31263;DHT22;17892;52.080;9.006;2022-07-23T01:19:29;15.50;95.90
31263;DHT22;17892;52.080;9.006;2022-07-23T01:21:57;15.60;96.00
31263;DHT22;17892;52.080;9.006;2022-07-23T01:24:23;15.60;96.10
31263;DHT22;17892;52.080;9.006;2022-07-23T01:26:50;15.60;96.50
31263;DHT22;17892;52.080;9.006;2022-07-23T01:29:16;15.60;96.20
31263;DHT22;17892;52.080;9.006;2022-07-23T01:31:43;15.60;96.30
31263;DHT22;17892;52.080;9.006;2022-07-23T01:34:09;15.70;96.40
31263;DHT22;17892;52.080;9.006;2022-07-23T01:36:36;15.70;96.40
31263;DHT22;17892;52.080;9.006;2022-07-23T01:39:03;15.80;96.40
31263;DHT22;17892;52.080;9.006;2022-07-23T01:41:30;15.80;96.50
31263;DHT22;17892;52.080;9.006;2022-07-23T01:43:56;15.80;96.50
31263;DHT22;17892;52.080;9.006;2022-07-23T01:46:22;15.90;96.60
31263;DHT22;17892;52.080;9.006;2022-07-23T01:48:48;15.90;96.60
31263;DHT22;17892;52.080;9.006;2022-07-23T01:51:14;16.00;96.50
31263;DHT22;17892;52.080;9.006;2022-07-23T01:53:40;16.00;96.50
31263;DHT22;17892;52.080;9.006;2022-07-23T01:56:06;16.00;96.50
31263;DHT22;17892;52.080;9.006;2022-07-23T01:58:32;16.00;96.60
31263;DHT22;17892;52.080;9.006;2022-07-23T02:00:58;16.10;96.70
31263;DHT22;17892;52.080;9.006;2022-07-23T02:03:24;16.10;96.60
31263;DHT22;17892;52.080;9.006;2022-07-23T02:05:50;16.20;96.70
31263;DHT22;17892;52.080;9.006;2022-07-23T02:08:16;16.20;96.70
31263;DHT22;17892;52.080;9.006;2022-07-23T02:10:42;16.30;96.70
31263;DHT22;17892;52.080;9.006;2022-07-23T02:13:08;16.30;96.80
31263;DHT22;17892;52.080;9.006;2022-07-23T02:15:34;16.30;96.80
31263;DHT22;17892;52.080;9.006;2022-07-23T02:18:00;16.30;96.80
31263;DHT22;17892;52.080;9.006;2022-07-23T02:20:26;16.30;96.80
31263;DHT22;17892;52.080;9.006;2022-07-23T02:22:51;16.30;96.80
31263;DHT22;17892;52.080;9.006;2022-07-23T02:25:17;16.30;97.10
31263;DHT22;17892;52.080;9.006;2022-07-23T02:27:43;16.40;96.80
31263;DHT22;17892;52.080;9.006;2022-07-23T02:30:10;16.40;96.80
31263;DHT22;17892;52.080;9.006;2022-07-23T02:32:36;16.40;96.90
31263;DHT22;17892;52.080;9.006;2022-07-23T02:35:03;16.40;96.90
31263;DHT22;17892;52.080;9.006;2022-07-23T02:37:29;16.40;96.90
31263;DHT22;17892;52.080;9.006;2022-07-23T02:39:55;16.40;96.90
31263;DHT22;17892;52.080;9.006;2022-07-23T02:42:21;16.50;96.90
31263;DHT22;17892;52.080;9.006;2022-07-23T02:44:46;16.50;97.00
31263;DHT22;17892;52.080;9.006;2022-07-23T02:47:12;16.50;97.00
31263;DHT22;17892;52.080;9.006;2022-07-23T02:49:38;16.50;97.00
31263;DHT22;17892;52.080;9.006;2022-07-23T02:52:03;16.50;96.90
31263;DHT22;17892;52.080;9.006;2022-07-23T02:54:29;16.50;96.90
31263;DHT22;17892;52.080;9.006;2022-07-23T02:56:55;16.50;96.90
31263;DHT22;17892;52.080;9.006;2022-07-23T02:59:21;16.50;96.90
31263;DHT22;17892;52.080;9.006;2022-07-23T03:01:47;16.50;96.90
31263;DHT22;17892;52.080;9.006;2022-07-23T03:04:13;16.40;96.90
31263;DHT22;17892;52.080;9.006;2022-07-23T03:06:38;16.40;96.90
31263;DHT22;17892;52.080;9.006;2022-07-23T03:09:04;16.40;96.90
31263;DHT22;17892;52.080;9.006;2022-07-23T03:11:31;16.40;96.90
31263;DHT22;17892;52.080;9.006;2022-07-23T03:13:57;16.40;96.90
31263;DHT22;17892;52.080;9.006;2022-07-23T03:16:23;16.40;97.00
31263;DHT22;17892;52.080;9.006;2022-07-23T03:18:48;16.40;96.90
31263;DHT22;17892;52.080;9.006;2022-07-23T03:21:14;16.40;96.90
31263;DHT22;17892;52.080;9.006;2022-07-23T03:23:40;16.30;96.90
31263;DHT22;17892;52.080;9.006;2022-07-23T03:26:06;16.30;96.90
31263;DHT22;17892;52.080;9.006;2022-07-23T03:28:31;16.30;96.90
31263;DHT22;17892;52.080;9.006;2022-07-23T03:30:57;16.30;96.90
31263;DHT22;17892;52.080;9.006;2022-07-23T03:33:23;16.30;96.90
31263;DHT22;17892;52.080;9.006;2022-07-23T03:35:49;16.30;96.90
31263;DHT22;17892;52.080;9.006;2022-07-23T03:38:15;16.20;96.90
31263;DHT22;17892;52.080;9.006;2022-07-23T03:40:41;16.20;97.00
31263;DHT22;17892;52.080;9.006;2022-07-23T03:43:07;16.20;97.00
31263;DHT22;17892;52.080;9.006;2022-07-23T03:45:33;16.20;97.00
31263;DHT22;17892;52.080;9.006;2022-07-23T03:47:59;16.20;97.00
31263;DHT22;17892;52.080;9.006;2022-07-23T03:50:25;16.20;97.00
31263;DHT22;17892;52.080;9.006;2022-07-23T03:52:51;16.20;96.90
31263;DHT22;17892;52.080;9.006;2022-07-23T03:55:17;16.10;96.90
31263;DHT22;17892;52.080;9.006;2022-07-23T03:57:43;16.10;96.90
31263;DHT22;17892;52.080;9.006;2022-07-23T04:00:10;16.10;96.90
31263;DHT22;17892;52.080;9.006;2022-07-23T04:02:37;16.10;97.00
31263;DHT22;17892;52.080;9.006;2022-07-23T04:05:04;16.00;97.00
31263;DHT22;17892;52.080;9.006;2022-07-23T04:07:30;16.00;97.00
31263;DHT22;17892;52.080;9.006;2022-07-23T04:09:56;16.00;97.30
31263;DHT22;17892;52.080;9.006;2022-07-23T04:12:24;15.90;96.80
31263;DHT22;17892;52.080;9.006;2022-07-23T04:25:52;15.70;97.00
31263;DHT22;17892;52.080;9.006;2022-07-23T04:28:18;15.70;96.50
31263;DHT22;17892;52.080;9.006;2022-07-23T04:30:43;15.60;96.60
31263;DHT22;17892;52.080;9.006;2022-07-23T04:33:09;15.50;96.70
31263;DHT22;17892;52.080;9.006;2022-07-23T04:35:35;15.50;96.70
31263;DHT22;17892;52.080;9.006;2022-07-23T04:38:02;15.50;96.80
31263;DHT22;17892;52.080;9.006;2022-07-23T04:40:29;15.40;96.80
31263;DHT22;17892;52.080;9.006;2022-07-23T04:42:55;15.40;97.00
31263;DHT22;17892;52.080;9.006;2022-07-23T04:45:21;15.40;97.20
31263;DHT22;17892;52.080;9.006;2022-07-23T04:47:48;15.40;97.30
31263;DHT22;17892;52.080;9.006;2022-07-23T04:50:14;15.40;97.40
31263;DHT22;17892;52.080;9.006;2022-07-23T04:52:44;15.50;97.50
31263;DHT22;17892;52.080;9.006;2022-07-23T04:55:10;15.50;97.60
31263;DHT22;17892;52.080;9.006;2022-07-23T04:57:36;15.60;97.90
31263;DHT22;17892;52.080;9.006;2022-07-23T05:00:03;15.70;98.10
31263;DHT22;17892;52.080;9.006;2022-07-23T05:02:29;15.90;98.30
31263;DHT22;17892;52.080;9.006;2022-07-23T05:04:55;16.00;98.50
31263;DHT22;17892;52.080;9.006;2022-07-23T05:07:20;16.20;98.60
31263;DHT22;17892;52.080;9.006;2022-07-23T05:09:46;16.50;98.50
31263;DHT22;17892;52.080;9.006;2022-07-23T05:12:12;16.70;98.50
31263;DHT22;17892;52.080;9.006;2022-07-23T05:14:37;17.00;98.50
31263;DHT22;17892;52.080;9.006;2022-07-23T05:17:03;17.20;98.40
31263;DHT22;17892;52.080;9.006;2022-07-23T05:19:29;17.50;98.20
31263;DHT22;17892;52.080;9.006;2022-07-23T05:21:55;17.80;98.10
31263;DHT22;17892;52.080;9.006;2022-07-23T05:24:20;18.10;98.10
31263;DHT22;17892;52.080;9.006;2022-07-23T05:26:46;18.30;98.00
31263;DHT22;17892;52.080;9.006;2022-07-23T05:29:12;18.70;98.00
31263;DHT22;17892;52.080;9.006;2022-07-23T05:31:37;18.90;97.70
31263;DHT22;17892;52.080;9.006;2022-07-23T05:34:03;19.20;97.50
31263;DHT22;17892;52.080;9.006;2022-07-23T05:36:31;19.50;97.30
31263;DHT22;17892;52.080;9.006;2022-07-23T05:38:57;19.80;96.90
31263;DHT22;17892;52.080;9.006;2022-07-23T05:41:23;20.00;96.70
31263;DHT22;17892;52.080;9.006;2022-07-23T05:43:49;20.30;96.40
31263;DHT22;17892;52.080;9.006;2022-07-23T05:46:14;20.50;96.10
31263;DHT22;17892;52.080;9.006;2022-07-23T05:48:40;20.70;95.80
31263;DHT22;17892;52.080;9.006;2022-07-23T05:51:07;20.90;95.40
31263;DHT22;17892;52.080;9.006;2022-07-23T05:53:34;21.10;95.10
31263;DHT22;17892;52.080;9.006;2022-07-23T05:56:00;21.30;95.00
31263;DHT22;17892;52.080;9.006;2022-07-23T05:58:26;21.40;95.00
31263;DHT22;17892;52.080;9.006;2022-07-23T06:00:52;21.50;94.80
31263;DHT22;17892;52.080;9.006;2022-07-23T06:03:18;21.70;94.80
31263;DHT22;17892;52.080;9.006;2022-07-23T06:05:45;21.90;94.80
31263;DHT22;17892;52.080;9.006;2022-07-23T06:08:10;22.10;94.70
31263;DHT22;17892;52.080;9.006;2022-07-23T06:10:36;22.20;94.50
31263;DHT22;17892;52.080;9.006;2022-07-23T06:13:03;22.40;94.30
31263;DHT22;17892;52.080;9.006;2022-07-23T06:15:29;22.60;94.00
31263;DHT22;17892;52.080;9.006;2022-07-23T06:17:55;22.70;93.70
31263;DHT22;17892;52.080;9.006;2022-07-23T06:20:21;22.80;93.40
31263;DHT22;17892;52.080;9.006;2022-07-23T06:22:47;22.80;92.90
31263;DHT22;17892;52.080;9.006;2022-07-23T06:25:13;22.90;92.80
31263;DHT22;17892;52.080;9.006;2022-07-23T06:27:38;22.90;92.70
31263;DHT22;17892;52.080;9.006;2022-07-23T06:30:04;22.80;92.40
31263;DHT22;17892;52.080;9.006;2022-07-23T06:32:31;22.80;92.20
31263;DHT22;17892;52.080;9.006;2022-07-23T06:34:57;22.80;92.10
31263;DHT22;17892;52.080;9.006;2022-07-23T06:37:23;22.80;92.20
31263;DHT22;17892;52.080;9.006;2022-07-23T06:39:49;22.70;91.90
31263;DHT22;17892;52.080;9.006;2022-07-23T06:42:14;22.70;91.60
31263;DHT22;17892;52.080;9.006;2022-07-23T06:44:40;22.60;91.70
31263;DHT22;17892;52.080;9.006;2022-07-23T06:47:06;22.50;91.70
31263;DHT22;17892;52.080;9.006;2022-07-23T06:49:32;22.50;91.50
31263;DHT22;17892;52.080;9.006;2022-07-23T06:51:57;22.50;91.30
31263;DHT22;17892;52.080;9.006;2022-07-23T06:54:23;22.40;91.00
31263;DHT22;17892;52.080;9.006;2022-07-23T06:56:50;22.40;91.40
31263;DHT22;17892;52.080;9.006;2022-07-23T06:59:15;22.40;91.60
31263;DHT22;17892;52.080;9.006;2022-07-23T07:01:41;22.40;91.90
31263;DHT22;17892;52.080;9.006;2022-07-23T07:04:07;22.50;92.00
31263;DHT22;17892;52.080;9.006;2022-07-23T07:06:32;22.50;92.10
31263;DHT22;17892;52.080;9.006;2022-07-23T07:08:58;22.60;92.10
31263;DHT22;17892;52.080;9.006;2022-07-23T07:11:24;22.70;92.10
31263;DHT22;17892;52.080;9.006;2022-07-23T07:13:50;22.90;92.00
31263;DHT22;17892;52.080;9.006;2022-07-23T07:16:17;23.00;91.80
31263;DHT22;17892;52.080;9.006;2022-07-23T07:18:42;23.00;91.30
31263;DHT22;17892;52.080;9.006;2022-07-23T07:21:08;23.00;90.60
31263;DHT22;17892;52.080;9.006;2022-07-23T07:23:34;23.00;89.20
31263;DHT22;17892;52.080;9.006;2022-07-23T07:26:00;22.90;88.90
31263;DHT22;17892;52.080;9.006;2022-07-23T07:28:25;22.70;89.40
31263;DHT22;17892;52.080;9.006;2022-07-23T07:30:51;22.60;88.50
31263;DHT22;17892;52.080;9.006;2022-07-23T07:33:17;22.50;88.90
31263;DHT22;17892;52.080;9.006;2022-07-23T07:35:42;22.40;88.90
31263;DHT22;17892;52.080;9.006;2022-07-23T07:38:08;22.40;88.20
31263;DHT22;17892;52.080;9.006;2022-07-23T07:40:34;22.20;87.80
31263;DHT22;17892;52.080;9.006;2022-07-23T07:43:00;22.20;88.40
31263;DHT22;17892;52.080;9.006;2022-07-23T07:45:27;22.20;88.80
31263;DHT22;17892;52.080;9.006;2022-07-23T07:47:52;22.20;89.80
31263;DHT22;17892;52.080;9.006;2022-07-23T07:50:19;22.20;90.00
31263;DHT22;17892;52.080;9.006;2022-07-23T07:52:46;22.20;88.60
31263;DHT22;17892;52.080;9.006;2022-07-23T07:55:12;22.20;88.90
31263;DHT22;17892;52.080;9.006;2022-07-23T07:57:38;22.20;89.10
31263;DHT22;17892;52.080;9.006;2022-07-23T08:00:05;22.20;88.30
31263;DHT22;17892;52.080;9.006;2022-07-23T08:02:47;22.20;88.00
31263;DHT22;17892;52.080;9.006;2022-07-23T08:05:14;22.20;86.10
31263;DHT22;17892;52.080;9.006;2022-07-23T08:07:40;22.20;88.60
31263;DHT22;17892;52.080;9.006;2022-07-23T08:10:09;22.30;88.60
31263;DHT22;17892;52.080;9.006;2022-07-23T08:12:47;22.30;88.10
31263;DHT22;17892;52.080;9.006;2022-07-23T08:15:15;22.40;87.70
31263;DHT22;17892;52.080;9.006;2022-07-23T08:17:43;22.30;89.50
31263;DHT22;17892;52.080;9.006;2022-07-23T08:20:10;22.40;88.80
31263;DHT22;17892;52.080;9.006;2022-07-23T08:25:10;22.40;86.40
31263;DHT22;17892;52.080;9.006;2022-07-23T08:27:36;22.40;86.90
31263;DHT22;17892;52.080;9.006;2022-07-23T08:30:02;22.40;88.00
31263;DHT22;17892;52.080;9.006;2022-07-23T08:32:28;22.50;89.80
31263;DHT22;17892;52.080;9.006;2022-07-23T08:34:54;22.70;89.20
31263;DHT22;17892;52.080;9.006;2022-07-23T08:37:19;22.90;89.70
31263;DHT22;17892;52.080;9.006;2022-07-23T08:39:45;23.10;88.80
31263;DHT22;17892;52.080;9.006;2022-07-23T08:42:12;23.40;89.20
31263;DHT22;17892;52.080;9.006;2022-07-23T08:44:41;23.70;88.00
31263;DHT22;17892;52.080;9.006;2022-07-23T08:47:11;24.00;87.50
31263;DHT22;17892;52.080;9.006;2022-07-23T08:49:38;24.30;87.40
31263;DHT22;17892;52.080;9.006;2022-07-23T08:52:04;24.60;87.60
31263;DHT22;17892;52.080;9.006;2022-07-23T08:54:31;24.80;85.30
31263;DHT22;17892;52.080;9.006;2022-07-23T08:56:57;24.90;82.60
31263;DHT22;17892;52.080;9.006;2022-07-23T08:59:23;24.80;81.60
31263;DHT22;17892;52.080;9.006;2022-07-23T09:01:49;24.70;81.00
31263;DHT22;17892;52.080;9.006;2022-07-23T09:22:46;23.60;79.20
31263;DHT22;17892;52.080;9.006;2022-07-23T09:25:18;23.50;79.90
31263;DHT22;17892;52.080;9.006;2022-07-23T09:27:57;23.60;82.90
31263;DHT22;17892;52.080;9.006;2022-07-23T09:30:29;23.90;85.20
31263;DHT22;17892;52.080;9.006;2022-07-23T09:33:07;24.20;84.70
31263;DHT22;17892;52.080;9.006;2022-07-23T09:35:54;24.50;81.40
31263;DHT22;17892;52.080;9.006;2022-07-23T09:38:23;24.70;80.30
31263;DHT22;17892;52.080;9.006;2022-07-23T09:41:19;24.70;79.00
31263;DHT22;17892;52.080;9.006;2022-07-23T09:43:45;24.70;74.20
31263;DHT22;17892;52.080;9.006;2022-07-23T09:46:25;24.60;78.60
31263;DHT22;17892;52.080;9.006;2022-07-23T09:48:55;24.60;77.00
31263;DHT22;17892;52.080;9.006;2022-07-23T09:51:22;24.60;78.00
31263;DHT22;17892;52.080;9.006;2022-07-23T09:54:02;24.60;77.60
31263;DHT22;17892;52.080;9.006;2022-07-23T09:56:28;24.60;75.20
31263;DHT22;17892;52.080;9.006;2022-07-23T09:58:55;24.50;75.80
31263;DHT22;17892;52.080;9.006;2022-07-23T10:01:35;24.50;76.50
31263;DHT22;17892;52.080;9.006;2022-07-23T10:04:01;24.50;76.90
31263;DHT22;17892;52.080;9.006;2022-07-23T10:06:28;24.60;76.50
31263;DHT22;17892;52.080;9.006;2022-07-23T10:08:58;24.60;75.50
31263;DHT22;17892;52.080;9.006;2022-07-23T10:11:27;24.60;74.20
31263;DHT22;17892;52.080;9.006;2022-07-23T10:13:54;24.50;74.30
31263;DHT22;17892;52.080;9.006;2022-07-23T10:16:21;24.40;73.00
31263;DHT22;17892;52.080;9.006;2022-07-23T10:18:48;24.30;73.50
31263;DHT22;17892;52.080;9.006;2022-07-23T10:21:42;24.10;73.50
31263;DHT22;17892;52.080;9.006;2022-07-23T10:30:25;24.10;76.00
31263;DHT22;17892;52.080;9.006;2022-07-23T10:35:33;24.40;75.50
31263;DHT22;17892;52.080;9.006;2022-07-23T10:38:12;24.70;76.80
31263;DHT22;17892;52.080;9.006;2022-07-23T10:41:01;24.90;76.50
31263;DHT22;17892;52.080;9.006;2022-07-23T10:43:29;25.30;73.50
31263;DHT22;17892;52.080;9.006;2022-07-23T10:45:55;25.50;73.00
31263;DHT22;17892;52.080;9.006;2022-07-23T10:48:26;25.50;72.40
31263;DHT22;17892;52.080;9.006;2022-07-23T10:51:15;25.60;71.40
31263;DHT22;17892;52.080;9.006;2022-07-23T10:54:00;25.80;68.30
31263;DHT22;17892;52.080;9.006;2022-07-23T10:57:04;25.90;70.70
31263;DHT22;17892;52.080;9.006;2022-07-23T10:59:33;26.10;70.50
31263;DHT22;17892;52.080;9.006;2022-07-23T11:02:31;26.40;70.80
31263;DHT22;17892;52.080;9.006;2022-07-23T11:05:21;26.60;70.30
31263;DHT22;17892;52.080;9.006;2022-07-23T11:10:37;26.90;67.50
31263;DHT22;17892;52.080;9.006;2022-07-23T11:16:04;26.90;66.50
31263;DHT22;17892;52.080;9.006;2022-07-23T11:23:59;26.70;64.80
31263;DHT22;17892;52.080;9.006;2022-07-23T11:32:22;27.10;67.20
31263;DHT22;17892;52.080;9.006;2022-07-23T11:34:50;27.30;65.40
31263;DHT22;17892;52.080;9.006;2022-07-23T11:37:37;27.50;66.10
31263;DHT22;17892;52.080;9.006;2022-07-23T11:40:12;27.70;63.10
31263;DHT22;17892;52.080;9.006;2022-07-23T11:42:57;27.80;64.50
31263;DHT22;17892;52.080;9.006;2022-07-23T11:45:31;28.00;63.80
31263;DHT22;17892;52.080;9.006;2022-07-23T11:48:07;28.00;62.30
31263;DHT22;17892;52.080;9.006;2022-07-23T11:50:35;28.00;61.60
31263;DHT22;17892;52.080;9.006;2022-07-23T11:53:02;28.00;61.30
31263;DHT22;17892;52.080;9.006;2022-07-23T11:55:29;27.90;61.00
31263;DHT22;17892;52.080;9.006;2022-07-23T11:57:56;27.80;61.10
31263;DHT22;17892;52.080;9.006;2022-07-23T12:00:25;27.80;61.20
31263;DHT22;17892;52.080;9.006;2022-07-23T12:02:56;27.80;61.70
31263;DHT22;17892;52.080;9.006;2022-07-23T12:05:28;28.00;61.00
31263;DHT22;17892;52.080;9.006;2022-07-23T12:07:59;28.10;61.70
31263;DHT22;17892;52.080;9.006;2022-07-23T12:10:28;28.30;60.30
31263;DHT22;17892;52.080;9.006;2022-07-23T12:13:04;28.50;60.10
31263;DHT22;17892;52.080;9.006;2022-07-23T12:15:40;28.60;59.00
31263;DHT22;17892;52.080;9.006;2022-07-23T12:18:09;28.70;58.80
31263;DHT22;17892;52.080;9.006;2022-07-23T12:20:45;28.80;58.70
31263;DHT22;17892;52.080;9.006;2022-07-23T12:23:16;28.80;57.50
31263;DHT22;17892;52.080;9.006;2022-07-23T12:25:45;28.80;55.70
31263;DHT22;17892;52.080;9.006;2022-07-23T12:28:14;28.70;56.80
31263;DHT22;17892;52.080;9.006;2022-07-23T12:30:52;28.70;57.40
31263;DHT22;17892;52.080;9.006;2022-07-23T12:33:29;28.80;56.30
31263;DHT22;17892;52.080;9.006;2022-07-23T12:36:02;28.70;56.10
31263;DHT22;17892;52.080;9.006;2022-07-23T12:38:41;28.60;57.00
31263;DHT22;17892;52.080;9.006;2022-07-23T12:41:08;28.60;56.10
31263;DHT22;17892;52.080;9.006;2022-07-23T12:43:38;28.70;56.50
31263;DHT22;17892;52.080;9.006;2022-07-23T12:46:10;28.80;56.70
31263;DHT22;17892;52.080;9.006;2022-07-23T12:48:38;28.90;57.80
31263;DHT22;17892;52.080;9.006;2022-07-23T12:51:16;29.10;57.70
31263;DHT22;17892;52.080;9.006;2022-07-23T12:53:54;29.30;57.60
31263;DHT22;17892;52.080;9.006;2022-07-23T12:56:32;29.50;56.00
31263;DHT22;17892;52.080;9.006;2022-07-23T12:59:08;29.70;55.70
31263;DHT22;17892;52.080;9.006;2022-07-23T13:01:38;29.70;53.90
31263;DHT22;17892;52.080;9.006;2022-07-23T13:04:14;29.70;54.40
31263;DHT22;17892;52.080;9.006;2022-07-23T13:06:47;29.60;53.40
31263;DHT22;17892;52.080;9.006;2022-07-23T13:09:21;29.50;52.30
31263;DHT22;17892;52.080;9.006;2022-07-23T13:11:50;29.40;52.30
31263;DHT22;17892;52.080;9.006;2022-07-23T13:14:18;29.40;52.80
31263;DHT22;17892;52.080;9.006;2022-07-23T13:16:45;29.30;53.30
31263;DHT22;17892;52.080;9.006;2022-07-23T13:19:11;29.30;53.40
31263;DHT22;17892;52.080;9.006;2022-07-23T13:21:39;29.30;52.60
31263;DHT22;17892;52.080;9.006;2022-07-23T13:24:06;29.30;53.30
31263;DHT22;17892;52.080;9.006;2022-07-23T13:26:33;29.30;52.50
31263;DHT22;17892;52.080;9.006;2022-07-23T13:28:59;29.10;51.90
31263;DHT22;17892;52.080;9.006;2022-07-23T13:31:24;29.10;52.00
31263;DHT22;17892;52.080;9.006;2022-07-23T13:33:50;29.00;52.40
31263;DHT22;17892;52.080;9.006;2022-07-23T13:36:16;29.00;52.90
31263;DHT22;17892;52.080;9.006;2022-07-23T13:38:41;29.00;53.20
31263;DHT22;17892;52.080;9.006;2022-07-23T13:41:07;29.00;52.90
31263;DHT22;17892;52.080;9.006;2022-07-23T13:43:33;29.10;52.10
31263;DHT22;17892;52.080;9.006;2022-07-23T13:45:59;29.10;52.10
31263;DHT22;17892;52.080;9.006;2022-07-23T13:48:25;29.10;51.90
31263;DHT22;17892;52.080;9.006;2022-07-23T13:50:51;29.10;52.20
31263;DHT22;17892;52.080;9.006;2022-07-23T13:53:22;29.10;52.60
31263;DHT22;17892;52.080;9.006;2022-07-23T13:55:49;29.20;52.00
31263;DHT22;17892;52.080;9.006;2022-07-23T13:58:16;29.20;51.00
31263;DHT22;17892;52.080;9.006;2022-07-23T14:00:45;29.30;52.50
31263;DHT22;17892;52.080;9.006;2022-07-23T14:03:14;29.40;52.30
31263;DHT22;17892;52.080;9.006;2022-07-23T14:05:40;29.50;52.20
31263;DHT22;17892;52.080;9.006;2022-07-23T14:08:07;29.60;50.60
31263;DHT22;17892;52.080;9.006;2022-07-23T14:10:33;29.60;50.70
31263;DHT22;17892;52.080;9.006;2022-07-23T14:12:59;29.60;50.70
31263;DHT22;17892;52.080;9.006;2022-07-23T14:15:27;29.50;50.60
31263;DHT22;17892;52.080;9.006;2022-07-23T14:17:54;29.50;50.10
31263;DHT22;17892;52.080;9.006;2022-07-23T14:20:20;29.50;50.50
31263;DHT22;17892;52.080;9.006;2022-07-23T14:22:46;29.50;50.60
31263;DHT22;17892;52.080;9.006;2022-07-23T14:25:12;29.50;50.60
31263;DHT22;17892;52.080;9.006;2022-07-23T14:27:38;29.60;50.60
31263;DHT22;17892;52.080;9.006;2022-07-23T14:30:06;29.70;50.70
31263;DHT22;17892;52.080;9.006;2022-07-23T14:32:32;29.70;50.70
31263;DHT22;17892;52.080;9.006;2022-07-23T14:34:58;29.80;50.80
31263;DHT22;17892;52.080;9.006;2022-07-23T14:37:24;29.90;50.80
31263;DHT22;17892;52.080;9.006;2022-07-23T14:39:50;29.90;49.70
31263;DHT22;17892;52.080;9.006;2022-07-23T14:42:17;30.00;49.20
31263;DHT22;17892;52.080;9.006;2022-07-23T14:44:43;30.00;49.60
31263;DHT22;17892;52.080;9.006;2022-07-23T14:47:09;30.00;48.60
31263;DHT22;17892;52.080;9.006;2022-07-23T14:49:35;29.90;47.90
31263;DHT22;17892;52.080;9.006;2022-07-23T14:52:02;29.80;48.10
31263;DHT22;17892;52.080;9.006;2022-07-23T14:54:28;29.70;48.00
31263;DHT22;17892;52.080;9.006;2022-07-23T14:56:55;29.60;48.20
31263;DHT22;17892;52.080;9.006;2022-07-23T14:59:22;29.50;48.20
31263;DHT22;17892;52.080;9.006;2022-07-23T15:01:48;29.40;47.70
31263;DHT22;17892;52.080;9.006;2022-07-23T15:04:15;29.30;48.30
31263;DHT22;17892;52.080;9.006;2022-07-23T15:06:40;29.20;48.90
31263;DHT22;17892;52.080;9.006;2022-07-23T15:09:06;29.20;49.80
31263;DHT22;17892;52.080;9.006;2022-07-23T15:11:32;29.20;49.60
31263;DHT22;17892;52.080;9.006;2022-07-23T15:14:00;29.30;49.50
31263;DHT22;17892;52.080;9.006;2022-07-23T15:16:27;29.40;49.10
31263;DHT22;17892;52.080;9.006;2022-07-23T15:18:53;29.40;48.80
31263;DHT22;17892;52.080;9.006;2022-07-23T15:21:19;29.40;48.80
31263;DHT22;17892;52.080;9.006;2022-07-23T15:23:44;29.40;48.10
31263;DHT22;17892;52.080;9.006;2022-07-23T15:26:10;29.30;47.70
31263;DHT22;17892;52.080;9.006;2022-07-23T15:28:36;29.10;47.50
31263;DHT22;17892;52.080;9.006;2022-07-23T15:31:02;28.90;47.30
31263;DHT22;17892;52.080;9.006;2022-07-23T15:33:28;28.60;48.60
31263;DHT22;17892;52.080;9.006;2022-07-23T15:35:54;28.60;49.00
31263;DHT22;17892;52.080;9.006;2022-07-23T15:38:23;28.50;49.90
31263;DHT22;17892;52.080;9.006;2022-07-23T15:40:49;28.60;50.00
31263;DHT22;17892;52.080;9.006;2022-07-23T15:43:15;28.70;50.10
31263;DHT22;17892;52.080;9.006;2022-07-23T15:45:41;28.80;50.10
31263;DHT22;17892;52.080;9.006;2022-07-23T15:48:07;28.90;49.20
31263;DHT22;17892;52.080;9.006;2022-07-23T15:50:32;29.00;48.70
31263;DHT22;17892;52.080;9.006;2022-07-23T15:52:58;29.00;49.00
31263;DHT22;17892;52.080;9.006;2022-07-23T15:55:24;29.00;48.00
31263;DHT22;17892;52.080;9.006;2022-07-23T15:57:51;29.00;47.80
31263;DHT22;17892;52.080;9.006;2022-07-23T16:00:17;28.90;48.40
31263;DHT22;17892;52.080;9.006;2022-07-23T16:02:43;28.80;48.20
31263;DHT22;17892;52.080;9.006;2022-07-23T16:05:09;28.70;47.80
31263;DHT22;17892;52.080;9.006;2022-07-23T16:07:35;28.60;48.00
31263;DHT22;17892;52.080;9.006;2022-07-23T16:10:04;28.50;48.80
31263;DHT22;17892;52.080;9.006;2022-07-23T16:12:30;28.40;49.10
31263;DHT22;17892;52.080;9.006;2022-07-23T16:14:56;28.40;49.00
31263;DHT22;17892;52.080;9.006;2022-07-23T16:17:22;28.40;49.30
31263;DHT22;17892;52.080;9.006;2022-07-23T16:19:48;28.40;49.40
31263;DHT22;17892;52.080;9.006;2022-07-23T16:22:13;28.40;49.90
31263;DHT22;17892;52.080;9.006;2022-07-23T16:24:42;28.40;49.90
31263;DHT22;17892;52.080;9.006;2022-07-23T16:27:08;28.40;49.90
31263;DHT22;17892;52.080;9.006;2022-07-23T16:29:35;28.50;49.90
31263;DHT22;17892;52.080;9.006;2022-07-23T16:32:00;28.50;49.40
31263;DHT22;17892;52.080;9.006;2022-07-23T16:34:26;28.50;49.30
31263;DHT22;17892;52.080;9.006;2022-07-23T16:36:52;28.60;49.30
31263;DHT22;17892;52.080;9.006;2022-07-23T16:39:18;28.60;49.00